createdAt,value
2022-11-20T00:02:33.117Z,66.77
2022-11-20T00:07:34.791Z,58.07
2022-11-20T00:12:36.427Z,56.10
2022-11-20T00:17:38.017Z,62.17
2022-11-20T00:22:39.702Z,55.47
2022-11-20T00:27:41.364Z,59.10
2022-11-20T00:32:42.961Z,59.07
2022-11-20T00:37:44.581Z,59.43
2022-11-20T00:42:46.204Z,61.50
2022-11-20T00:47:47.824Z,59.20
2022-11-20T00:52:49.405Z,61.30
2022-11-20T00:57:51.011Z,55.03
2022-11-20T01:02:52.589Z,52.00
2022-11-20T01:07:54.229Z,58.53
2022-11-20T01:13:14.384Z,55.73
2022-11-20T01:18:15.983Z,45.73
2022-11-20T01:23:17.660Z,53.03
2022-11-20T01:28:19.238Z,51.83
2022-11-20T01:33:20.833Z,51.53
2022-11-20T01:38:23.562Z,48.03
2022-11-20T01:43:26.502Z,50.23
2022-11-20T01:48:34.733Z,50.10
2022-11-20T01:53:37.817Z,52.80
2022-11-20T01:58:45.001Z,51.87
2022-11-20T02:03:47.748Z,49.63
2022-11-20T02:08:49.489Z,47.73
2022-11-20T02:13:51.689Z,48.23
2022-11-20T02:18:55.869Z,48.93
2022-11-20T02:24:05.083Z,44.73
2022-11-20T02:29:07.208Z,45.03
2022-11-20T02:34:09.097Z,49.00
2022-11-20T02:39:14.307Z,44.03
2022-11-20T02:44:15.976Z,44.97
2022-11-20T02:49:18.024Z,44.80
2022-11-20T02:54:19.789Z,44.80
2022-11-20T02:59:21.896Z,44.53
2022-11-20T03:04:23.829Z,49.57
2022-11-20T03:09:25.428Z,42.90
2022-11-20T03:14:27.016Z,46.13
2022-11-20T03:19:29.817Z,43.13
2022-11-20T03:24:31.509Z,49.43
2022-11-20T03:29:33.448Z,44.40
2022-11-20T03:34:35.062Z,43.67
2022-11-20T03:39:36.620Z,46.97
2022-11-20T03:44:38.217Z,49.23
2022-11-20T03:49:39.851Z,43.50
2022-11-20T03:54:41.438Z,45.80
2022-11-20T03:59:43.029Z,44.17
2022-11-20T04:04:44.634Z,41.53
2022-11-20T04:09:46.282Z,45.40
2022-11-20T04:14:47.847Z,47.93
2022-11-20T04:19:49.416Z,39.10
2022-11-20T04:24:51.033Z,41.13
2022-11-20T04:29:52.674Z,41.13
2022-11-20T04:34:54.230Z,36.77
2022-11-20T04:39:56.028Z,35.17
2022-11-20T04:44:58.148Z,37.20
2022-11-20T04:49:59.850Z,44.20
2022-11-20T04:55:01.554Z,42.33
2022-11-20T05:00:04.217Z,35.37
2022-11-20T05:05:06.115Z,38.50
2022-11-20T05:10:08.053Z,35.03
2022-11-20T05:15:10.107Z,29.83
2022-11-20T05:20:12.276Z,34.97
2022-11-20T05:25:14.012Z,40.27
2022-11-20T05:30:15.863Z,34.53
2022-11-20T05:35:17.509Z,35.37
2022-11-20T05:40:19.081Z,35.13
2022-11-20T05:45:20.699Z,41.37
2022-11-20T05:50:22.267Z,34.57
2022-11-20T05:55:23.892Z,31.87
2022-11-20T06:00:25.520Z,35.80
2022-11-20T06:05:27.184Z,32.00
2022-11-20T06:10:28.825Z,35.03
2022-11-20T06:15:30.409Z,41.80
2022-11-20T06:20:32.032Z,34.93
2022-11-20T06:25:33.623Z,35.00
2022-11-20T06:30:35.740Z,35.07
2022-11-20T06:35:37.322Z,30.87
2022-11-20T06:40:41.723Z,33.63
2022-11-20T06:45:43.786Z,32.87
2022-11-20T06:50:45.460Z,36.27
2022-11-20T06:55:48.163Z,31.03
2022-11-20T07:00:50.061Z,32.90
2022-11-20T07:05:51.702Z,31.97
2022-11-20T07:10:53.607Z,33.33
2022-11-20T07:15:55.373Z,25.00
2022-11-20T07:20:57.097Z,34.17
2022-11-20T07:25:59.038Z,27.97
2022-11-20T07:31:00.881Z,29.40
2022-11-20T07:36:02.938Z,29.70
2022-11-20T07:41:05.015Z,40.17
2022-11-20T07:46:06.756Z,51.97
2022-11-20T07:51:08.422Z,51.73
2022-11-20T07:56:10.474Z,49.03
2022-11-20T08:01:12.144Z,58.53
2022-11-20T08:06:13.769Z,51.27
2022-11-20T08:11:50.749Z,64.33
2022-11-20T08:16:52.334Z,42.37
2022-11-20T08:21:53.968Z,34.10
2022-11-20T08:26:58.876Z,32.53
2022-11-20T08:32:00.471Z,34.27
2022-11-20T08:37:03.505Z,33.00
2022-11-20T08:42:08.829Z,49.43
2022-11-20T08:47:10.410Z,37.57
2022-11-20T08:52:12.021Z,34.40
2022-11-20T08:57:13.659Z,39.20
2022-11-20T09:02:15.315Z,43.83
2022-11-20T09:07:17.263Z,38.17
2022-11-20T09:12:18.945Z,32.07
2022-11-20T09:17:21.432Z,39.10
2022-11-20T09:22:23.027Z,32.77
2022-11-20T09:27:24.954Z,32.33
2022-11-20T09:32:26.604Z,38.73
2022-11-20T09:37:28.460Z,42.37
2022-11-20T09:42:30.101Z,37.07
2022-11-20T09:47:31.629Z,23.70
2022-11-20T09:53:11.802Z,35.73
2022-11-20T09:58:44.794Z,120.23
2022-11-20T10:03:59.081Z,30.33
2022-11-20T10:09:12.787Z,25.17
2022-11-20T10:14:33.307Z,24.10
2022-11-20T10:19:53.456Z,26.97
2022-11-20T10:25:18.128Z,27.27
2022-11-20T10:30:23.003Z,25.17
2022-11-20T10:35:30.807Z,26.80
2022-11-20T10:40:49.080Z,26.33
2022-11-20T10:46:01.541Z,25.97
2022-11-20T10:51:16.139Z,19.43
2022-11-20T10:56:48.357Z,28.27
2022-11-20T11:01:51.425Z,23.40
2022-11-20T11:06:59.766Z,23.20
2022-11-20T11:12:06.846Z,25.70
2022-11-20T11:17:21.863Z,25.23
2022-11-20T11:22:23.580Z,26.17
2022-11-20T11:27:25.250Z,22.57
2022-11-20T11:32:27.701Z,28.90
2022-11-20T11:37:38.448Z,26.03
2022-11-20T11:42:57.179Z,25.00
2022-11-20T11:48:01.864Z,25.40
2022-11-20T11:53:12.859Z,25.27
2022-11-20T11:58:32.492Z,30.13
2022-11-20T12:03:44.895Z,24.23
2022-11-20T12:08:55.724Z,27.97
2022-11-20T12:14:05.606Z,26.23
2022-11-20T12:19:15.313Z,32.17
2022-11-20T12:24:32.613Z,27.53
2022-11-20T12:29:59.547Z,24.53
2022-11-20T12:35:29.748Z,49.13
2022-11-20T12:41:12.587Z,28.83
2022-11-20T12:46:28.892Z,27.83
2022-11-20T12:51:56.751Z,31.13
2022-11-20T12:57:28.528Z,33.83
2022-11-20T13:02:39.361Z,33.33
2022-11-20T13:07:43.036Z,30.97
2022-11-20T13:12:56.158Z,27.50
2022-11-20T13:18:03.972Z,29.00
2022-11-20T13:23:05.786Z,33.00
2022-11-20T13:28:10.618Z,32.17
2022-11-20T13:33:38.867Z,30.17
2022-11-20T13:38:55.291Z,27.73
2022-11-20T13:44:10.243Z,29.17
2022-11-20T13:49:25.999Z,32.80
2022-11-20T13:54:44.277Z,27.90
2022-11-20T14:00:16.534Z,23.45
2022-11-20T14:05:24.243Z,26.33
2022-11-20T14:10:32.025Z,27.07
2022-11-20T14:15:37.343Z,30.50
2022-11-20T14:20:42.879Z,22.67
2022-11-20T14:25:46.312Z,27.33
2022-11-20T14:30:49.316Z,27.87
2022-11-20T14:35:54.867Z,29.63
2022-11-20T14:41:17.557Z,22.17
2022-11-20T14:46:19.927Z,24.23
2022-11-20T14:51:44.176Z,26.00
2022-11-20T14:57:04.557Z,24.90
2022-11-20T15:02:10.712Z,23.27
2022-11-20T15:07:12.622Z,24.73
2022-11-20T15:12:18.724Z,27.87
2022-11-20T15:17:20.562Z,21.80
2022-11-20T15:22:22.567Z,27.13
2022-11-20T15:27:24.427Z,24.63
2022-11-20T15:32:26.198Z,27.87
2022-11-20T15:37:30.043Z,28.77
2022-11-20T15:42:32.103Z,25.60
2022-11-20T15:47:36.309Z,27.80
2022-11-20T15:52:41.886Z,28.87
2022-11-20T15:57:44.213Z,30.60
2022-11-20T16:02:45.994Z,36.97
2022-11-20T16:07:47.766Z,34.77
2022-11-20T16:13:08.058Z,37.23
2022-11-20T16:18:12.422Z,39.20
2022-11-20T16:23:14.874Z,40.10
2022-11-20T16:28:19.139Z,43.90
2022-11-20T16:33:21.336Z,44.00
2022-11-20T16:38:23.098Z,38.27
2022-11-20T16:43:24.902Z,38.13
2022-11-20T16:48:26.683Z,36.27
2022-11-20T16:53:28.455Z,37.57
2022-11-20T16:58:30.233Z,41.03
2022-11-20T17:03:32.036Z,41.77
2022-11-20T17:08:33.814Z,39.00
2022-11-20T17:13:39.835Z,39.97
2022-11-20T17:18:42.321Z,40.00
2022-11-20T17:23:45.710Z,43.67
2022-11-20T17:28:54.071Z,39.30
2022-11-20T17:33:56.454Z,41.53
2022-11-20T17:38:59.078Z,58.80
2022-11-20T17:44:02.951Z,50.37
2022-11-20T17:49:05.750Z,74.30
2022-11-20T17:54:07.819Z,66.50
2022-11-20T17:59:12.312Z,52.80
2022-11-20T18:04:14.261Z,51.77
2022-11-20T18:09:16.056Z,53.03
2022-11-20T18:14:32.229Z,54.90
2022-11-20T18:19:42.346Z,49.80
2022-11-20T18:24:46.867Z,65.80
2022-11-20T18:29:51.866Z,52.17
2022-11-20T18:34:53.989Z,58.03
2022-11-20T18:39:57.010Z,63.33
2022-11-20T18:45:00.312Z,61.93
2022-11-20T18:50:02.354Z,57.43
2022-11-20T18:55:05.815Z,60.90
2022-11-20T19:00:09.815Z,49.53
2022-11-20T19:05:14.101Z,81.03
2022-11-20T19:10:20.255Z,74.87
2022-11-20T19:15:22.402Z,78.33
2022-11-20T19:20:25.317Z,80.83
2022-11-20T19:25:27.143Z,74.23
2022-11-20T19:30:28.958Z,69.33
2022-11-20T19:35:30.920Z,64.67
2022-11-20T19:40:32.758Z,67.47
2022-11-20T19:45:34.567Z,65.13
2022-11-20T19:50:36.356Z,68.97
2022-11-20T19:55:38.156Z,69.60
2022-11-20T20:00:40.153Z,62.87
2022-11-20T20:05:42.037Z,60.30
2022-11-20T20:10:43.954Z,65.17
2022-11-20T20:15:45.734Z,66.23
2022-11-20T20:20:47.500Z,64.27
2022-11-20T20:25:49.409Z,62.97
2022-11-20T20:30:51.193Z,65.07
2022-11-20T20:35:54.180Z,63.87
2022-11-20T20:40:56.386Z,66.10
2022-11-20T20:45:58.484Z,67.17
2022-11-20T20:51:02.668Z,60.33
2022-11-20T20:56:04.718Z,57.63
2022-11-20T21:01:09.217Z,57.30
2022-11-20T21:06:11.876Z,53.33
2022-11-20T21:11:16.281Z,47.70
2022-11-20T21:16:20.706Z,51.27
2022-11-20T21:21:40.887Z,52.60
2022-11-20T21:26:42.683Z,48.80
2022-11-20T21:31:45.087Z,48.73
2022-11-20T21:36:47.520Z,49.87
2022-11-20T21:41:49.254Z,48.67
2022-11-20T21:46:51.068Z,55.10
2022-11-20T21:51:53.792Z,57.47
2022-11-20T21:56:55.607Z,64.97
2022-11-20T22:01:57.444Z,60.30
2022-11-20T22:06:59.429Z,64.13
2022-11-20T22:12:01.301Z,58.67
2022-11-20T22:17:03.250Z,56.50
2022-11-20T22:22:05.062Z,52.23
2022-11-20T22:27:06.899Z,48.47
2022-11-20T22:32:08.669Z,48.07
2022-11-20T22:37:12.357Z,54.53
2022-11-20T22:42:14.175Z,53.87
2022-11-20T22:47:15.939Z,55.43
2022-11-20T22:52:17.783Z,57.60
2022-11-20T22:57:19.557Z,56.13
2022-11-20T23:02:21.327Z,59.77
2022-11-20T23:07:23.130Z,60.50
2022-11-20T23:12:24.957Z,54.43
2022-11-20T23:17:26.801Z,59.20
2022-11-20T23:22:28.546Z,61.47
2022-11-20T23:27:30.334Z,61.57
2022-11-20T23:32:32.084Z,57.53
2022-11-20T23:37:33.877Z,57.37
2022-11-20T23:42:35.714Z,55.00
2022-11-20T23:47:37.485Z,56.33
2022-11-20T23:52:39.222Z,57.07
2022-11-20T23:57:40.834Z,55.87
